createdAt,value
2019-05-20T00:00:50.117Z,12.17
2019-05-20T00:03:17.159Z,13.13
2019-05-20T00:05:44.606Z,13.40
2019-05-20T00:08:12.356Z,13.03
2019-05-20T00:10:40.102Z,12.90
2019-05-20T00:13:07.927Z,12.87
2019-05-20T00:15:34.986Z,12.90
2019-05-20T00:18:02.451Z,14.97
2019-05-20T00:20:29.769Z,13.90
2019-05-20T00:22:57.660Z,14.07
2019-05-20T00:25:25.726Z,14.90
2019-05-20T00:27:53.351Z,14.67
2019-05-20T00:30:20.719Z,15.20
2019-05-20T00:32:48.696Z,14.73
2019-05-20T00:35:16.391Z,13.63
2019-05-20T00:37:43.795Z,14.20
2019-05-20T00:40:11.771Z,14.67
2019-05-20T00:42:38.980Z,15.10
2019-05-20T00:45:06.596Z,14.60
2019-05-20T00:47:34.138Z,14.97
2019-05-20T00:50:02.420Z,15.17
2019-05-20T00:52:30.692Z,15.60
2019-05-20T00:54:58.397Z,14.07
2019-05-20T00:57:26.152Z,14.80
2019-05-20T00:59:54.103Z,13.57
2019-05-20T01:02:21.460Z,14.17
2019-05-20T01:04:48.489Z,14.30
2019-05-20T01:07:15.890Z,15.83
2019-05-20T01:09:43.205Z,15.17
2019-05-20T01:12:10.616Z,14.90
2019-05-20T01:14:39.154Z,17.00
2019-05-20T01:17:06.578Z,16.73
2019-05-20T01:19:33.585Z,15.73
2019-05-20T01:22:01.258Z,15.87
2019-05-20T01:24:29.032Z,17.30
2019-05-20T01:26:56.072Z,15.90
2019-05-20T01:29:23.429Z,16.90
2019-05-20T01:31:51.092Z,16.67
2019-05-20T01:34:18.806Z,17.53
2019-05-20T01:36:47.074Z,16.93
2019-05-20T01:39:15.037Z,15.00
2019-05-20T01:41:43.563Z,17.80
2019-05-20T01:44:11.155Z,15.30
2019-05-20T01:46:39.680Z,17.10
2019-05-20T01:49:07.263Z,16.70
2019-05-20T01:51:34.994Z,18.93
2019-05-20T01:54:02.061Z,18.67
2019-05-20T01:56:29.449Z,19.13
2019-05-20T01:58:57.050Z,20.00
2019-05-20T02:01:25.181Z,22.03
2019-05-20T02:03:53.252Z,20.83
2019-05-20T02:06:21.014Z,21.73
2019-05-20T02:08:49.623Z,19.33
2019-05-20T02:11:18.224Z,21.43
2019-05-20T02:13:58.636Z,21.43
2019-05-20T02:16:26.114Z,21.70
2019-05-20T02:18:53.330Z,20.33
2019-05-20T02:21:21.857Z,21.27
2019-05-20T02:23:50.116Z,22.23
2019-05-20T02:26:17.238Z,20.70
2019-05-20T02:28:45.570Z,21.90
2019-05-20T02:31:12.991Z,20.70
2019-05-20T02:33:51.739Z,21.83
2019-05-20T02:36:11.001Z,21.63
2019-05-20T02:38:39.385Z,21.07
2019-05-20T02:41:06.439Z,20.53
2019-05-20T02:43:33.747Z,20.20
2019-05-20T02:46:00.753Z,20.93
2019-05-20T02:48:28.123Z,21.47
2019-05-20T02:50:56.263Z,21.40
2019-05-20T02:53:23.700Z,21.70
2019-05-20T02:55:51.134Z,23.17
2019-05-20T02:58:19.185Z,24.07
2019-05-20T03:00:47.241Z,22.57
2019-05-20T03:03:15.014Z,23.90
2019-05-20T03:05:43.117Z,22.30
2019-05-20T03:08:11.685Z,25.17
2019-05-20T03:10:39.457Z,22.60
2019-05-20T03:13:07.382Z,23.60
2019-05-20T03:15:34.799Z,25.63
2019-05-20T03:18:02.216Z,22.47
2019-05-20T03:20:30.192Z,21.60
2019-05-20T03:22:57.811Z,21.20
2019-05-20T03:25:25.495Z,21.63
2019-05-20T03:27:53.177Z,21.40
2019-05-20T03:30:20.339Z,21.33
2019-05-20T03:32:47.447Z,19.90
2019-05-20T03:35:17.093Z,22.90
2019-05-20T03:37:45.865Z,23.60
2019-05-20T03:40:13.432Z,24.27
2019-05-20T03:42:40.799Z,23.03
2019-05-20T03:45:09.079Z,24.70
2019-05-20T03:47:38.320Z,29.80
2019-05-20T03:50:06.679Z,26.67
2019-05-20T03:52:35.135Z,26.40
2019-05-20T03:55:02.312Z,30.90
2019-05-20T03:57:29.772Z,25.70
2019-05-20T03:59:57.155Z,29.17
2019-05-20T04:02:24.234Z,28.47
2019-05-20T04:05:01.919Z,25.83
2019-05-20T04:07:21.490Z,25.80
2019-05-20T04:09:49.583Z,27.67
2019-05-20T04:12:17.596Z,28.83
2019-05-20T04:14:45.437Z,28.90
2019-05-20T04:17:13.580Z,27.77
2019-05-20T04:19:41.269Z,29.10
2019-05-20T04:22:08.778Z,28.43
2019-05-20T04:24:35.870Z,28.60
2019-05-20T04:27:03.219Z,30.40
2019-05-20T04:29:31.349Z,29.97
2019-05-20T04:32:00.377Z,28.67
2019-05-20T04:34:28.045Z,30.10
2019-05-20T04:36:57.035Z,26.90
2019-05-20T04:39:25.244Z,28.00
2019-05-20T04:41:54.074Z,30.67
2019-05-20T04:44:22.133Z,29.73
2019-05-20T04:46:49.973Z,31.83
2019-05-20T04:49:17.472Z,29.17
2019-05-20T04:51:44.525Z,28.87
2019-05-20T04:54:12.213Z,29.77
2019-05-20T04:56:39.656Z,30.83
2019-05-20T04:59:07.008Z,30.07
2019-05-20T05:01:34.135Z,31.80
2019-05-20T05:04:02.194Z,31.27
2019-05-20T05:06:32.824Z,31.70
2019-05-20T05:09:01.307Z,29.83
2019-05-20T05:11:28.863Z,31.20
2019-05-20T05:13:56.506Z,32.40
2019-05-20T05:16:24.495Z,31.43
2019-05-20T05:18:52.099Z,34.60
2019-05-20T05:21:19.581Z,34.80
2019-05-20T05:23:58.886Z,34.40
2019-05-20T05:26:17.380Z,36.30
2019-05-20T05:28:45.465Z,33.13
2019-05-20T05:31:12.789Z,34.53
2019-05-20T05:33:41.003Z,34.83
2019-05-20T05:36:08.083Z,34.60
2019-05-20T05:38:35.961Z,34.17
2019-05-20T05:41:03.965Z,35.10
2019-05-20T05:43:32.477Z,36.93
2019-05-20T05:46:00.884Z,37.17
2019-05-20T05:48:28.287Z,35.97
2019-05-20T05:50:55.964Z,36.90
2019-05-20T05:53:23.293Z,37.57
2019-05-20T05:55:50.325Z,37.70
2019-05-20T05:58:17.800Z,36.87
2019-05-20T06:00:45.145Z,36.03
2019-05-20T06:03:12.230Z,35.77
2019-05-20T06:05:39.684Z,37.60
2019-05-20T06:08:09.645Z,36.73
2019-05-20T06:10:37.043Z,37.10
2019-05-20T06:13:05.185Z,37.00
2019-05-20T06:15:33.435Z,40.37
2019-05-20T06:18:01.554Z,38.53
2019-05-20T06:20:29.013Z,41.27
2019-05-20T06:22:57.130Z,38.07
2019-05-20T06:25:24.202Z,42.73
2019-05-20T06:27:52.259Z,41.27
2019-05-20T06:30:21.675Z,39.90
2019-05-20T06:32:49.468Z,42.73
2019-05-20T06:35:17.582Z,40.90
2019-05-20T06:37:50.422Z,41.40
2019-05-20T06:40:20.502Z,41.90
2019-05-20T06:42:48.135Z,42.30
2019-05-20T06:45:15.249Z,43.70
2019-05-20T06:47:42.660Z,44.40
2019-05-20T06:50:10.441Z,44.47
2019-05-20T06:52:37.957Z,43.83
2019-05-20T06:55:06.511Z,42.37
2019-05-20T06:57:33.998Z,44.83
2019-05-20T07:00:02.877Z,41.67
2019-05-20T07:02:30.009Z,44.93
2019-05-20T07:04:57.413Z,42.20
2019-05-20T07:07:24.920Z,42.30
2019-05-20T07:09:52.269Z,42.97
2019-05-20T07:12:20.175Z,42.07
2019-05-20T07:14:47.483Z,41.80
2019-05-20T07:17:14.561Z,41.93
2019-05-20T07:19:42.447Z,41.57
2019-05-20T07:22:10.740Z,43.23
2019-05-20T07:24:38.274Z,40.87
2019-05-20T07:27:05.953Z,44.40
2019-05-20T07:29:33.905Z,40.90
2019-05-20T07:32:01.735Z,41.13
2019-05-20T07:34:28.834Z,42.07
2019-05-20T07:37:03.747Z,37.40
2019-05-20T07:39:30.514Z,39.20
2019-05-20T07:41:57.978Z,39.17
2019-05-20T07:44:25.819Z,42.63
2019-05-20T07:46:52.936Z,39.40
2019-05-20T07:49:23.289Z,40.87
2019-05-20T07:51:52.243Z,39.90
2019-05-20T07:54:20.151Z,38.63
2019-05-20T07:56:49.577Z,41.30
2019-05-20T07:59:20.033Z,40.07
2019-05-20T08:01:47.384Z,40.50
2019-05-20T08:04:15.346Z,38.50
2019-05-20T08:06:43.395Z,39.57
2019-05-20T08:09:10.799Z,38.53
2019-05-20T08:11:38.026Z,39.40
2019-05-20T08:14:05.967Z,38.40
2019-05-20T08:16:33.608Z,38.27
2019-05-20T08:19:00.990Z,38.40
2019-05-20T08:21:28.852Z,39.90
2019-05-20T08:23:57.115Z,39.87
2019-05-20T08:26:24.907Z,40.10
2019-05-20T08:28:52.945Z,39.07
2019-05-20T08:31:20.378Z,39.80
2019-05-20T08:33:47.864Z,37.27
2019-05-20T08:36:15.375Z,39.37
2019-05-20T08:38:42.811Z,36.80
2019-05-20T08:41:10.973Z,38.17
2019-05-20T08:43:38.499Z,36.80
2019-05-20T08:46:05.767Z,37.43
2019-05-20T08:48:32.873Z,38.60
2019-05-20T08:51:00.300Z,40.90
2019-05-20T08:53:27.788Z,41.77
2019-05-20T08:55:55.612Z,39.43
2019-05-20T08:58:23.674Z,38.47
2019-05-20T09:00:51.431Z,40.60
2019-05-20T09:03:19.223Z,40.93
2019-05-20T09:05:46.963Z,39.90
2019-05-20T09:08:14.461Z,38.37
2019-05-20T09:10:42.769Z,36.10
2019-05-20T09:13:10.204Z,38.50
2019-05-20T09:15:37.412Z,41.87
2019-05-20T09:18:04.853Z,40.23
2019-05-20T09:20:32.316Z,41.87
2019-05-20T09:23:02.625Z,40.73
2019-05-20T09:25:30.193Z,38.93
2019-05-20T09:27:58.695Z,40.87
2019-05-20T09:30:26.036Z,41.83
2019-05-20T09:32:53.649Z,42.40
2019-05-20T09:35:21.227Z,43.30
2019-05-20T09:37:48.228Z,40.30
2019-05-20T09:40:29.416Z,42.47
2019-05-20T09:42:57.166Z,43.40
2019-05-20T09:45:24.486Z,39.13
2019-05-20T09:47:52.048Z,39.43
2019-05-20T09:50:19.106Z,41.37
2019-05-20T09:52:46.559Z,40.90
2019-05-20T09:55:13.699Z,41.57
2019-05-20T09:57:41.091Z,41.33
2019-05-20T10:00:10.092Z,41.80
2019-05-20T10:02:38.554Z,41.83
2019-05-20T10:05:07.291Z,41.03
2019-05-20T10:07:35.214Z,40.07
2019-05-20T10:10:05.211Z,39.93
2019-05-20T10:12:45.232Z,40.10
2019-05-20T10:15:03.886Z,38.80
2019-05-20T10:17:31.451Z,38.70
2019-05-20T10:19:59.565Z,39.37
2019-05-20T10:22:26.962Z,39.40
2019-05-20T10:24:54.308Z,39.73
2019-05-20T10:27:21.628Z,41.97
2019-05-20T10:29:49.786Z,41.70
2019-05-20T10:32:17.733Z,41.27
2019-05-20T10:34:44.921Z,41.87
2019-05-20T10:37:12.258Z,39.47
2019-05-20T10:39:41.071Z,40.07
2019-05-20T10:42:08.401Z,41.07
2019-05-20T10:44:35.893Z,41.00
2019-05-20T10:47:06.542Z,43.10
2019-05-20T10:49:34.292Z,41.40
2019-05-20T10:52:04.015Z,40.77
2019-05-20T10:54:31.107Z,40.57
2019-05-20T10:56:59.769Z,43.17
2019-05-20T10:59:27.699Z,42.53
2019-05-20T11:01:55.166Z,40.60
2019-05-20T11:04:22.544Z,41.03
2019-05-20T11:06:49.587Z,42.00
2019-05-20T11:09:17.434Z,42.67
2019-05-20T11:11:44.467Z,40.60
2019-05-20T11:14:12.353Z,40.77
2019-05-20T11:16:40.193Z,39.30
2019-05-20T11:19:07.680Z,39.27
2019-05-20T11:21:34.741Z,38.53
2019-05-20T11:24:01.806Z,40.50
2019-05-20T11:26:29.135Z,39.30
2019-05-20T11:28:56.926Z,41.23
2019-05-20T11:31:24.607Z,40.57
2019-05-20T11:33:52.530Z,43.20
2019-05-20T11:36:20.349Z,42.00
2019-05-20T11:38:48.149Z,42.00
2019-05-20T11:41:15.513Z,43.40
2019-05-20T11:43:42.889Z,41.07
2019-05-20T11:46:10.366Z,39.30
2019-05-20T11:48:37.418Z,40.50
2019-05-20T11:51:04.507Z,43.37
2019-05-20T11:53:32.252Z,44.20
2019-05-20T11:55:59.331Z,43.97
2019-05-20T11:58:26.399Z,41.73
2019-05-20T12:00:54.274Z,42.93
2019-05-20T12:03:21.831Z,42.20
2019-05-20T12:05:48.868Z,42.30
2019-05-20T12:08:16.572Z,42.83
2019-05-20T12:10:43.876Z,41.47
2019-05-20T12:13:11.758Z,42.97
2019-05-20T12:15:39.758Z,42.80
2019-05-20T12:18:06.891Z,43.10
2019-05-20T12:20:35.862Z,44.17
2019-05-20T12:23:02.933Z,44.90
2019-05-20T12:25:30.766Z,42.17
2019-05-20T12:27:58.649Z,43.00
2019-05-20T12:30:25.716Z,45.00
2019-05-20T12:33:15.591Z,45.47
2019-05-20T12:35:22.329Z,42.17
2019-05-20T12:37:49.693Z,44.87
2019-05-20T12:40:17.212Z,42.93
2019-05-20T12:42:44.867Z,45.97
2019-05-20T12:45:12.376Z,44.30
2019-05-20T12:47:39.831Z,44.60
2019-05-20T12:50:07.948Z,42.87
2019-05-20T12:52:35.209Z,46.70
2019-05-20T12:55:07.861Z,46.07
2019-05-20T12:57:31.906Z,46.60
2019-05-20T12:59:59.396Z,49.33
2019-05-20T13:02:27.471Z,47.47
2019-05-20T13:04:54.589Z,46.57
2019-05-20T13:07:22.092Z,47.23
2019-05-20T13:09:52.184Z,48.77
2019-05-20T13:12:19.715Z,48.90
2019-05-20T13:14:46.796Z,49.93
2019-05-20T13:17:14.298Z,48.47
2019-05-20T13:19:43.053Z,48.47
2019-05-20T13:22:10.929Z,48.30
2019-05-20T13:24:38.513Z,50.80
2019-05-20T13:27:06.632Z,49.83
2019-05-20T13:29:34.082Z,47.40
2019-05-20T13:32:01.122Z,48.47
2019-05-20T13:34:28.805Z,49.73
2019-05-20T13:36:56.970Z,51.07
2019-05-20T13:39:24.714Z,48.73
2019-05-20T13:41:52.485Z,51.77
2019-05-20T13:44:19.842Z,48.07
2019-05-20T13:46:47.480Z,51.97
2019-05-20T13:49:14.626Z,49.20
2019-05-20T13:51:42.141Z,51.07
2019-05-20T13:54:09.590Z,48.80
2019-05-20T13:56:37.087Z,46.17
2019-05-20T13:59:04.525Z,48.33
2019-05-20T14:01:31.874Z,48.57
2019-05-20T14:03:59.616Z,46.37
2019-05-20T14:06:26.659Z,47.47
2019-05-20T14:08:53.714Z,45.60
2019-05-20T14:11:33.891Z,43.80
2019-05-20T14:13:50.556Z,45.20
2019-05-20T14:16:18.426Z,44.70
2019-05-20T14:18:45.781Z,46.50
2019-05-20T14:21:13.508Z,44.17
2019-05-20T14:23:40.566Z,43.30
2019-05-20T14:26:07.601Z,45.20
2019-05-20T14:28:35.398Z,46.03
2019-05-20T14:31:05.930Z,48.20
2019-05-20T14:34:14.518Z,49.73
2019-05-20T14:36:54.300Z,46.97
2019-05-20T14:39:21.775Z,47.83
2019-05-20T14:41:49.417Z,45.97
2019-05-20T14:44:17.234Z,49.00
2019-05-20T14:46:45.042Z,46.00
2019-05-20T14:49:12.767Z,47.80
2019-05-20T14:51:41.005Z,50.97
2019-05-20T14:54:08.366Z,49.40
2019-05-20T14:56:36.396Z,49.90
2019-05-20T14:59:04.180Z,46.70
2019-05-20T15:01:32.051Z,50.63
2019-05-20T15:03:59.138Z,48.50
2019-05-20T15:06:26.918Z,47.67
2019-05-20T15:08:54.334Z,50.50
2019-05-20T15:11:35.637Z,49.47
2019-05-20T15:13:51.096Z,51.97
2019-05-20T15:16:18.492Z,50.00
2019-05-20T15:18:45.639Z,51.17
2019-05-20T15:21:13.124Z,47.97
2019-05-20T15:23:40.511Z,48.50
2019-05-20T15:26:07.520Z,49.57
2019-05-20T15:28:35.126Z,49.67
2019-05-20T15:31:02.778Z,48.20
2019-05-20T15:33:30.543Z,49.03
2019-05-20T15:35:57.883Z,46.47
2019-05-20T15:38:25.656Z,49.83
2019-05-20T15:40:53.220Z,46.23
2019-05-20T15:43:22.949Z,48.60
2019-05-20T15:45:50.792Z,46.97
2019-05-20T15:48:19.025Z,47.60
2019-05-20T15:50:46.479Z,47.07
2019-05-20T15:53:13.655Z,50.70
2019-05-20T15:55:41.038Z,46.77
2019-05-20T15:58:08.172Z,46.00
2019-05-20T16:00:35.543Z,44.43
2019-05-20T16:03:02.665Z,48.90
2019-05-20T16:05:30.727Z,45.50
2019-05-20T16:08:10.216Z,47.10
2019-05-20T16:11:10.132Z,46.67
2019-05-20T16:14:07.174Z,45.17
2019-05-20T16:17:04.425Z,44.03
2019-05-20T16:20:08.461Z,46.20
2019-05-20T16:23:08.593Z,44.97
2019-05-20T16:26:06.593Z,41.80
2019-05-20T16:28:35.125Z,44.80
2019-05-20T16:31:02.777Z,44.70
2019-05-20T16:33:31.369Z,46.60
2019-05-20T16:35:59.034Z,46.00
2019-05-20T16:38:39.413Z,45.07
2019-05-20T16:41:07.060Z,43.80
2019-05-20T16:43:42.959Z,44.30
2019-05-20T16:46:10.186Z,45.97
2019-05-20T16:48:38.336Z,47.90
2019-05-20T16:51:06.775Z,48.17
2019-05-20T16:53:38.607Z,43.87
2019-05-20T16:56:11.274Z,46.23
2019-05-20T16:58:39.875Z,47.30
2019-05-20T17:01:10.038Z,46.57
2019-05-20T17:03:40.782Z,49.27
2019-05-20T17:06:12.890Z,46.70
2019-05-20T17:08:43.138Z,46.73
2019-05-20T17:11:33.770Z,48.00
2019-05-20T17:14:30.007Z,47.53
2019-05-20T17:16:57.439Z,47.00
2019-05-20T17:19:30.437Z,47.87
2019-05-20T17:21:57.838Z,47.03
2019-05-20T17:24:24.839Z,45.40
2019-05-20T17:26:52.639Z,47.30
2019-05-20T17:29:20.522Z,46.57
2019-05-20T17:31:48.268Z,46.03
2019-05-20T17:34:15.942Z,44.37
2019-05-20T17:39:21.164Z,44.70
2019-05-20T17:41:49.427Z,46.17
2019-05-20T17:44:16.520Z,45.30
2019-05-20T17:46:43.909Z,46.07
2019-05-20T17:49:11.325Z,43.60
2019-05-20T17:51:38.681Z,43.53
2019-05-20T17:54:06.899Z,42.97
2019-05-20T17:56:34.404Z,41.90
2019-05-20T17:59:03.905Z,44.10
2019-05-20T18:01:31.239Z,44.43
2019-05-20T18:03:59.647Z,40.53
2019-05-20T18:06:27.410Z,42.33
2019-05-20T18:08:56.820Z,41.20
2019-05-20T18:11:24.236Z,42.33
2019-05-20T18:13:51.754Z,41.33
2019-05-20T18:16:19.628Z,40.20
2019-05-20T18:18:46.970Z,39.80
2019-05-20T18:21:14.918Z,39.67
2019-05-20T18:23:45.419Z,40.67
2019-05-20T18:26:13.486Z,39.60
2019-05-20T18:28:40.783Z,39.47
2019-05-20T18:31:07.825Z,41.17
2019-05-20T18:33:35.708Z,38.57
2019-05-20T18:36:03.509Z,39.17
2019-05-20T18:38:31.758Z,38.80
2019-05-20T18:40:59.761Z,39.90
2019-05-20T18:43:27.570Z,39.23
2019-05-20T18:45:55.436Z,41.93
2019-05-20T18:48:24.221Z,40.33
2019-05-20T18:50:51.977Z,40.80
2019-05-20T18:53:19.762Z,39.40
2019-05-20T18:55:47.436Z,38.57
2019-05-20T18:58:15.326Z,38.60
2019-05-20T19:00:42.850Z,37.67
2019-05-20T19:03:10.303Z,39.30
2019-05-20T19:05:38.281Z,38.60
2019-05-20T19:08:05.583Z,38.60
2019-05-20T19:10:33.301Z,36.30
2019-05-20T19:13:00.901Z,39.40
2019-05-20T19:15:28.714Z,35.70
2019-05-20T19:17:56.153Z,38.20
2019-05-20T19:20:23.341Z,36.07
2019-05-20T19:22:51.031Z,37.37
2019-05-20T19:25:19.163Z,36.43
2019-05-20T19:27:47.563Z,37.97
2019-05-20T19:30:15.707Z,35.10
2019-05-20T19:32:42.917Z,37.53
2019-05-20T19:35:10.512Z,35.27
2019-05-20T19:37:38.017Z,36.97
2019-05-20T19:40:06.872Z,36.57
2019-05-20T19:42:35.205Z,35.60
2019-05-20T19:45:02.356Z,35.53
2019-05-20T19:47:30.158Z,34.90
2019-05-20T19:49:57.782Z,33.23
2019-05-20T19:52:26.003Z,35.13
2019-05-20T19:54:53.640Z,35.10
2019-05-20T19:57:21.318Z,34.60
2019-05-20T19:59:49.319Z,36.63
2019-05-20T20:02:18.072Z,35.23
2019-05-20T20:04:45.568Z,33.27
2019-05-20T20:07:12.972Z,35.10
2019-05-20T20:09:40.023Z,35.43
2019-05-20T20:12:08.307Z,36.63
2019-05-20T20:14:35.711Z,35.80
2019-05-20T20:17:02.973Z,39.57
2019-05-20T20:19:30.392Z,37.77
2019-05-20T20:21:57.774Z,36.37
2019-05-20T20:24:25.616Z,36.07
2019-05-20T20:26:52.613Z,38.27
2019-05-20T20:29:20.036Z,38.30
2019-05-20T20:31:47.451Z,33.93
2019-05-20T20:34:15.235Z,37.37
2019-05-20T20:36:42.431Z,36.63
2019-05-20T20:39:10.339Z,37.73
2019-05-20T20:41:37.441Z,35.83
2019-05-20T20:44:05.106Z,37.83
2019-05-20T20:46:32.431Z,35.57
2019-05-20T20:49:00.784Z,34.20
2019-05-20T20:51:27.911Z,35.87
2019-05-20T20:53:55.279Z,35.17
2019-05-20T20:56:25.447Z,33.27
2019-05-20T20:58:52.957Z,33.53
2019-05-20T21:01:20.452Z,32.90
2019-05-20T21:03:47.504Z,33.00
2019-05-20T21:06:14.789Z,31.37
2019-05-20T21:08:41.907Z,32.93
2019-05-20T21:11:09.913Z,31.20
2019-05-20T21:13:37.350Z,30.83
2019-05-20T21:16:04.400Z,31.73
2019-05-20T21:18:32.073Z,31.97
2019-05-20T21:20:59.347Z,31.77
2019-05-20T21:23:27.080Z,32.80
2019-05-20T21:25:54.933Z,34.37
2019-05-20T21:28:22.891Z,29.80
2019-05-20T21:30:50.803Z,30.03
2019-05-20T21:33:17.864Z,32.07
2019-05-20T21:35:45.666Z,32.70
2019-05-20T21:38:13.315Z,30.80
2019-05-20T21:40:40.648Z,30.23
2019-05-20T21:43:08.129Z,30.70
2019-05-20T21:45:35.171Z,31.33
2019-05-20T21:48:02.775Z,30.60
2019-05-20T21:50:29.870Z,29.60
2019-05-20T21:52:57.228Z,28.53
2019-05-20T21:55:24.720Z,28.20
2019-05-20T21:57:52.867Z,27.73
2019-05-20T22:00:27.310Z,28.57
2019-05-20T22:02:55.178Z,27.33
2019-05-20T22:05:22.271Z,28.77
2019-05-20T22:07:50.910Z,26.53
2019-05-20T22:10:18.007Z,27.07
2019-05-20T22:12:45.180Z,28.57
2019-05-20T22:15:14.313Z,29.40
2019-05-20T22:17:42.149Z,29.37
2019-05-20T22:20:10.123Z,30.43
2019-05-20T22:22:45.679Z,31.67
2019-05-20T22:25:13.125Z,31.00
2019-05-20T22:27:41.222Z,30.07
2019-05-20T22:30:09.319Z,28.03
2019-05-20T22:32:37.440Z,27.83
2019-05-20T22:35:05.027Z,31.23
2019-05-20T22:37:32.304Z,29.90
2019-05-20T22:39:59.690Z,28.47
2019-05-20T22:42:27.319Z,31.80
2019-05-20T22:44:54.771Z,28.93
2019-05-20T22:47:21.854Z,27.50
2019-05-20T22:49:49.766Z,27.57
2019-05-20T22:52:17.760Z,27.13
2019-05-20T22:54:45.303Z,27.80
2019-05-20T22:57:12.740Z,29.67
2019-05-20T22:59:40.334Z,28.37
2019-05-20T23:02:08.586Z,28.73
2019-05-20T23:04:36.115Z,28.37
2019-05-20T23:07:03.580Z,29.10
2019-05-20T23:09:31.407Z,28.67
2019-05-20T23:11:59.885Z,28.30
2019-05-20T23:14:29.969Z,26.80
2019-05-20T23:16:58.565Z,28.97
2019-05-20T23:19:26.134Z,26.70
2019-05-20T23:21:54.189Z,26.23
2019-05-20T23:24:21.655Z,28.70
2019-05-20T23:26:49.062Z,30.30
2019-05-20T23:29:16.087Z,28.47
2019-05-20T23:31:43.515Z,27.13
2019-05-20T23:34:13.214Z,27.03
2019-05-20T23:36:39.824Z,25.10
2019-05-20T23:39:07.281Z,26.20
2019-05-20T23:41:35.029Z,28.37
2019-05-20T23:44:02.724Z,28.10
2019-05-20T23:46:30.403Z,27.00
2019-05-20T23:48:58.781Z,28.53
2019-05-20T23:51:25.854Z,25.67
2019-05-20T23:53:53.564Z,27.50
2019-05-20T23:56:21.457Z,29.40
2019-05-20T23:58:49.708Z,28.97
